Time;durP1;ratioP1;P1;durP2;ratioP2;P2;SDS_P1;SDS_P2;PMS_P1;PMS_P2;Temp;Humidity;BMP_temperature;BMP_pressure;BME280_temperature;BME280_humidity;BME280_pressure;Samples;Min_cycle;Max_cycle;Signal;HPM_P1;HPM_P2
2022/04/14 00:00:38;;;;;;;24.80;11.03;;;;;;;7.32;47.51;100641.31;4178459;28;20233;-66
2022/04/14 00:03:04;;;;;;;26.13;11.53;;;;;;;7.34;47.06;100641.22;4179693;28;20315;-65
2022/04/14 00:05:32;;;;;;;27.10;10.97;;;;;;;7.37;46.34;100638.31;4193955;28;20238;-64
2022/04/14 00:07:58;;;;;;;31.20;11.87;;;;;;;7.34;46.60;100635.91;4165171;28;21695;-64
2022/04/14 00:10:25;;;;;;;23.97;10.73;;;;;;;7.37;45.86;100646.25;4169920;28;22934;-63
2022/04/14 00:12:52;;;;;;;23.40;10.17;;;;;;;7.36;46.32;100639.28;4181859;28;25663;-65
2022/04/14 00:15:18;;;;;;;25.90;10.63;;;;;;;7.36;45.40;100639.28;4181839;28;20240;-65
2022/04/14 00:17:45;;;;;;;30.60;11.03;;;;;;;7.30;46.24;100639.75;4204454;28;22087;-64
2022/04/14 00:20:11;;;;;;;32.50;11.13;;;;;;;7.29;45.97;100630.16;4190050;28;22595;-64
2022/04/14 00:22:38;;;;;;;27.73;11.10;;;;;;;7.29;45.81;100630.16;4183939;28;24956;-64
2022/04/14 00:25:05;;;;;;;24.33;11.03;;;;;;;7.25;46.49;100629.53;4197637;28;20338;-66
2022/04/14 00:27:31;;;;;;;27.17;10.33;;;;;;;7.17;46.53;100624.00;4187905;28;20234;-65
2022/04/14 00:29:58;;;;;;;25.83;10.27;;;;;;;7.28;45.50;100625.78;4190513;28;20353;-65
2022/04/14 00:32:25;;;;;;;29.40;10.83;;;;;;;7.31;45.56;100630.88;4186057;28;20681;-63
2022/04/14 00:34:51;;;;;;;22.50;9.80;;;;;;;7.25;45.07;100626.03;4171027;28;20234;-64
2022/04/14 00:37:18;;;;;;;23.27;10.17;;;;;;;7.31;45.05;100625.56;4191663;28;20232;-64
2022/04/14 00:39:45;;;;;;;22.10;9.63;;;;;;;7.26;45.19;100622.41;4183579;28;20237;-65
2022/04/14 00:42:13;;;;;;;26.43;9.97;;;;;;;7.25;44.53;100615.44;4190669;28;20595;-66
2022/04/14 00:44:39;;;;;;;27.13;9.37;;;;;;;7.24;45.25;100611.13;4193635;28;23850;-65
2022/04/14 00:47:07;;;;;;;25.30;10.30;;;;;;;7.23;44.82;100614.72;4183715;28;20357;-64
2022/04/14 00:49:34;;;;;;;30.40;9.70;;;;;;;7.20;44.65;100618.47;4181878;28;20238;-63
2022/04/14 00:52:01;;;;;;;25.83;9.70;;;;;;;7.15;45.62;100616.16;4202150;28;25158;-64
2022/04/14 00:54:31;;;;;;;21.93;8.73;;;;;;;7.14;44.51;100614.50;4179168;28;20246;-64
2022/04/14 00:57:01;;;;;;;22.83;8.43;;;;;;;7.23;44.56;100606.78;4172650;28;20240;-63
2022/04/14 00:59:29;;;;;;;19.67;8.90;;;;;;;7.24;44.39;100611.13;4203862;28;21826;-63
2022/04/14 01:01:55;;;;;;;17.70;8.37;;;;;;;7.32;44.37;100606.06;4197122;28;20243;-63
2022/04/14 01:04:22;;;;;;;20.00;8.40;;;;;;;7.37;44.00;100603.91;4168662;28;20305;-65
2022/04/14 01:06:49;;;;;;;22.63;8.77;;;;;;;7.34;44.00;100615.56;4178741;28;20272;-64
2022/04/14 01:09:18;;;;;;;22.47;9.37;;;;;;;7.37;44.07;100609.19;4164413;28;20265;-64
2022/04/14 01:11:47;;;;;;;20.10;8.93;;;;;;;7.37;44.34;100610.06;4191895;28;22093;-65
2022/04/14 01:14:34;;;;;;;25.67;8.93;;;;;;;7.36;44.66;100612.81;4194668;28;20256;-65
2022/04/14 01:17:05;;;;;;;23.93;9.97;;;;;;;7.26;44.86;100610.06;4190329;28;20374;-62
2022/04/14 01:19:33;;;;;;;24.97;9.50;;;;;;;7.26;45.00;100612.69;4188808;28;20328;-63
2022/04/14 01:22:05;;;;;;;19.90;8.80;;;;;;;7.41;44.03;100610.66;4191401;28;20239;-65
2022/04/14 01:24:32;;;;;;;21.20;9.73;;;;;;;7.41;44.35;100618.59;4189190;28;20439;-64
2022/04/14 01:27:00;;;;;;;24.77;9.87;;;;;;;7.39;44.11;100607.28;4168243;28;20230;-66
2022/04/14 01:29:27;;;;;;;22.53;9.83;;;;;;;7.40;44.46;100609.81;4162681;28;22917;-63
2022/04/14 01:31:55;;;;;;;30.10;10.80;;;;;;;7.11;45.73;100609.41;4187174;28;20291;-63
2022/04/14 01:34:22;;;;;;;26.47;10.17;;;;;;;7.13;45.26;100611.97;4180525;28;21254;-65
2022/04/14 01:36:48;;;;;;;23.90;10.13;;;;;;;7.16;45.62;100615.22;4189485;28;20292;-63
2022/04/14 01:39:15;;;;;;;23.67;10.53;;;;;;;7.25;45.59;100611.00;4171848;28;20288;-64
2022/04/14 01:41:42;;;;;;;22.87;11.33;;;;;;;7.17;46.29;100611.59;4199918;28;21248;-68
2022/04/14 01:44:10;;;;;;;22.83;10.70;;;;;;;6.96;46.36;100621.19;4184786;28;21333;-64
2022/04/14 01:46:37;;;;;;;31.10;11.37;;;;;;;6.92;47.34;100614.44;4170739;28;26475;-66
2022/04/14 01:49:04;;;;;;;27.40;11.20;;;;;;;6.85;47.31;100613.22;4185235;28;20947;-64
2022/04/14 01:51:31;;;;;;;26.90;11.60;;;;;;;6.80;47.84;100607.44;4178238;28;21965;-65
2022/04/14 01:53:57;;;;;;;26.97;11.27;;;;;;;6.65;48.18;100610.28;4189307;28;20239;-64
2022/04/14 01:56:24;;;;;;;29.80;12.23;;;;;;;6.61;48.87;100611.47;4181869;28;20225;-63
2022/04/14 01:58:52;;;;;;;26.60;11.03;;;;;;;6.55;49.44;100614.56;4188359;28;20359;-63
2022/04/14 02:01:19;;;;;;;31.10;12.27;;;;;;;6.56;49.83;100610.97;4190657;28;21638;-64
2022/04/14 02:03:46;;;;;;;28.50;12.40;;;;;;;6.62;49.82;100614.97;4188871;28;20247;-63
2022/04/14 02:06:13;;;;;;;31.33;13.20;;;;;;;6.62;49.90;100607.88;4185363;28;20290;-64
2022/04/14 02:08:40;;;;;;;30.10;13.20;;;;;;;6.46;51.24;100607.31;4177977;28;20392;-64
2022/04/14 02:11:07;;;;;;;30.07;13.07;;;;;;;6.34;51.41;100609.94;4191168;28;20231;-64
2022/04/14 02:13:33;;;;;;;33.67;14.57;;;;;;;6.44;51.53;100609.22;4177781;28;20262;-63
2022/04/14 02:16:00;;;;;;;31.83;14.33;;;;;;;6.31;51.74;100604.88;4173696;28;21665;-64
2022/04/14 02:18:27;;;;;;;34.57;14.47;;;;;;;6.34;52.26;100612.59;4173542;28;20412;-64
2022/04/14 02:20:53;;;;;;;33.90;13.17;;;;;;;6.27;52.26;100607.84;4172936;28;20232;-65
2022/04/14 02:23:20;;;;;;;32.77;14.97;;;;;;;6.21;52.72;100606.50;4188168;28;24453;-63
2022/04/14 02:25:47;;;;;;;36.23;15.30;;;;;;;6.33;52.83;100618.81;4174942;28;20234;-67
2022/04/14 02:28:14;;;;;;;33.63;14.97;;;;;;;6.33;52.47;100607.41;4173231;28;22912;-64
2022/04/14 02:30:41;;;;;;;31.83;14.53;;;;;;;6.31;52.89;100610.16;4174709;28;20943;-63
2022/04/14 02:33:07;;;;;;;37.53;15.17;;;;;;;6.36;52.29;100601.03;4180028;28;25383;-63
2022/04/14 02:35:34;;;;;;;34.00;14.53;;;;;;;6.25;53.63;100607.09;4170961;28;22962;-62
2022/04/14 02:38:01;;;;;;;33.80;14.87;;;;;;;6.21;53.73;100598.59;4175663;28;20236;-64
2022/04/14 02:40:27;;;;;;;37.37;14.53;;;;;;;6.18;53.75;100598.81;4192976;28;20749;-63
2022/04/14 02:42:54;;;;;;;35.30;16.00;;;;;;;6.16;54.06;100595.44;4199014;28;20227;-63
2022/04/14 02:45:21;;;;;;;32.37;15.43;;;;;;;6.22;54.14;100600.25;4190654;28;20283;-63
2022/04/14 02:47:48;;;;;;;34.87;14.80;;;;;;;6.21;54.03;100582.72;4180380;28;20252;-63
2022/04/14 02:50:14;;;;;;;38.77;16.07;;;;;;;6.17;54.24;100591.81;4190131;28;22953;-65
2022/04/14 02:52:40;;;;;;;38.63;16.10;;;;;;;6.15;54.41;100591.09;4193169;28;20244;-64
2022/04/14 02:55:07;;;;;;;33.93;15.77;;;;;;;6.06;55.33;100594.41;4177658;28;22136;-63
2022/04/14 02:57:34;;;;;;;32.37;14.47;;;;;;;6.15;54.87;100593.75;4189829;28;20247;-63
2022/04/14 03:00:03;;;;;;;35.03;15.77;;;;;;;6.02;55.42;100592.97;4177821;28;20241;-63
2022/04/14 03:02:30;;;;;;;34.90;15.13;;;;;;;6.10;54.54;100590.59;4194795;28;20812;-63
2022/04/14 03:04:56;;;;;;;31.27;14.93;;;;;;;5.98;55.00;100589.69;4167763;28;20234;-63
2022/04/14 03:07:23;;;;;;;36.67;15.27;;;;;;;5.77;56.58;100589.41;4173020;28;20230;-65
2022/04/14 03:09:50;;;;;;;40.33;16.13;;;;;;;5.78;56.30;100591.09;4186317;28;20273;-64
2022/04/14 03:12:16;;;;;;;35.20;14.77;;;;;;;5.88;55.83;100586.84;4200900;28;20456;-65
2022/04/14 03:14:43;;;;;;;36.97;15.27;;;;;;;5.89;55.33;100583.25;4171325;28;20296;-65
2022/04/14 03:17:10;;;;;;;38.83;16.30;;;;;;;5.93;56.11;100579.44;4192955;28;20303;-64
2022/04/14 03:19:36;;;;;;;38.33;15.53;;;;;;;5.84;56.42;100579.25;4168782;28;20239;-65
2022/04/14 03:22:03;;;;;;;32.87;14.30;;;;;;;5.86;56.18;100580.84;4180254;28;20229;-64
2022/04/14 03:24:30;;;;;;;35.53;14.93;;;;;;;5.89;56.42;100580.59;4165616;28;25527;-63
2022/04/14 03:26:56;;;;;;;31.10;14.37;;;;;;;5.91;55.47;100576.06;4168477;28;21416;-64
2022/04/14 03:29:23;;;;;;;36.30;14.17;;;;;;;6.09;54.93;100567.78;4188571;28;23059;-63
2022/04/14 03:31:49;;;;;;;34.37;13.67;;;;;;;6.10;54.69;100574.75;4171489;28;20261;-64
2022/04/14 03:34:16;;;;;;;30.23;13.90;;;;;;;6.06;54.92;100563.56;4187168;28;20305;-64
2022/04/14 03:36:42;;;;;;;28.73;12.93;;;;;;;6.06;54.37;100565.34;4191853;28;20232;-64
2022/04/14 03:39:09;;;;;;;34.07;13.93;;;;;;;6.01;54.83;100560.41;4190578;28;20683;-62
2022/04/14 03:41:35;;;;;;;32.57;13.07;;;;;;;6.09;54.50;100560.69;4178343;28;20650;-65
2022/04/14 03:44:02;;;;;;;33.80;13.53;;;;;;;6.23;54.26;100566.78;4192391;28;20391;-64
2022/04/14 03:46:29;;;;;;;32.17;12.90;;;;;;;6.29;53.57;100563.66;4189505;28;22110;-63
2022/04/14 03:48:58;;;;;;;31.73;13.50;;;;;;;6.36;53.65;100569.31;4181826;28;25641;-63
2022/04/14 03:51:25;;;;;;;40.07;13.83;;;;;;;6.42;53.34;100566.25;4187284;28;20231;-65
2022/04/14 03:53:52;;;;;;;32.60;13.30;;;;;;;6.44;53.23;100557.22;4181884;28;23389;-64
2022/04/14 03:56:19;;;;;;;33.10;13.87;;;;;;;6.35;53.95;100557.91;4186240;28;22599;-65
2022/04/14 03:58:45;;;;;;;30.50;13.27;;;;;;;6.36;54.05;100559.59;4205747;28;20231;-64
2022/04/14 04:01:12;;;;;;;30.50;13.37;;;;;;;6.45;53.60;100564.19;4211137;28;25818;-63
2022/04/14 04:03:38;;;;;;;34.90;14.00;;;;;;;6.40;53.26;100562.88;4201629;28;21749;-65
2022/04/14 04:06:06;;;;;;;30.00;13.20;;;;;;;6.55;52.53;100566.97;4187639;28;21226;-65
2022/04/14 04:08:33;;;;;;;30.10;13.00;;;;;;;6.67;52.82;100565.22;4199823;28;20747;-67
2022/04/14 04:11:00;;;;;;;33.17;13.80;;;;;;;6.68;52.14;100558.97;4195748;28;20240;-64
2022/04/14 04:13:27;;;;;;;30.10;13.70;;;;;;;6.67;52.62;100563.44;4169280;28;22120;-65
2022/04/14 04:15:54;;;;;;;29.20;13.30;;;;;;;6.64;52.52;100557.53;4191912;28;20274;-65
2022/04/14 04:18:20;;;;;;;37.00;13.77;;;;;;;6.55;52.84;100553.75;4180488;28;27152;-63
2022/04/14 04:20:47;;;;;;;35.53;13.07;;;;;;;6.70;53.08;100557.91;4198368;28;20674;-63
2022/04/14 04:23:14;;;;;;;35.47;14.20;;;;;;;6.59;53.70;100552.56;4205738;28;23805;-65
2022/04/14 04:25:40;;;;;;;32.90;14.17;;;;;;;6.63;53.08;100556.69;4212495;28;20275;-64
2022/04/14 04:28:07;;;;;;;33.33;13.73;;;;;;;6.77;53.00;100552.97;4177911;28;20233;-68
2022/04/14 04:30:34;;;;;;;35.60;14.03;;;;;;;6.84;52.57;100553.38;4172079;28;20276;-66
2022/04/14 04:33:00;;;;;;;33.37;13.93;;;;;;;6.76;53.00;100551.28;4173670;28;20230;-64
2022/04/14 04:35:27;;;;;;;40.07;14.80;;;;;;;6.78;53.07;100543.25;4186944;28;20232;-65
2022/04/14 04:37:54;;;;;;;34.03;13.63;;;;;;;6.78;53.18;100540.59;4206482;28;21803;-65
2022/04/14 04:40:21;;;;;;;35.27;14.60;;;;;;;6.78;52.95;100540.59;4190745;28;25240;-65
2022/04/14 04:42:48;;;;;;;31.20;14.00;;;;;;;7.02;52.51;100536.03;4166378;28;20290;-64
2022/04/14 04:45:14;;;;;;;42.20;14.07;;;;;;;7.06;51.93;100542.78;4177632;28;22426;-67
2022/04/14 04:47:41;;;;;;;37.03;13.83;;;;;;;7.26;51.62;100543.00;4184303;28;20343;-66
2022/04/14 04:50:08;;;;;;;31.27;13.00;;;;;;;7.25;51.15;100542.19;4182271;28;20297;-64
2022/04/14 04:52:35;;;;;;;32.03;13.20;;;;;;;7.28;51.50;100541.09;4169555;28;20236;-65
2022/04/14 04:55:02;;;;;;;31.33;12.53;;;;;;;7.35;50.84;100542.28;4188255;28;21634;-64
2022/04/14 04:57:28;;;;;;;27.90;12.33;;;;;;;7.35;50.88;100543.16;4185920;28;20246;-64
2022/04/14 04:59:55;;;;;;;31.53;13.20;;;;;;;7.47;50.22;100545.75;4212825;28;20310;-64
2022/04/14 05:02:21;;;;;;;26.93;12.47;;;;;;;7.52;50.23;100555.03;4181841;28;20236;-64
2022/04/14 05:04:48;;;;;;;30.70;13.87;;;;;;;7.60;50.52;100559.72;4205150;28;20764;-62
2022/04/14 05:07:14;;;;;;;34.20;13.70;;;;;;;7.69;49.44;100550.19;4192866;28;20322;-64
2022/04/14 05:09:41;;;;;;;31.83;12.93;;;;;;;7.61;49.49;100548.19;4174472;28;20238;-63
2022/04/14 05:12:08;;;;;;;30.50;12.87;;;;;;;7.57;50.41;100547.56;4173615;28;25430;-64
2022/04/14 05:14:35;;;;;;;33.50;14.03;;;;;;;7.59;50.29;100545.66;4186590;28;20229;-64
2022/04/14 05:17:05;;;;;;;42.20;13.57;;;;;;;7.58;50.24;100545.75;4158323;28;20382;-64
2022/04/14 05:19:31;;;;;;;35.63;14.27;;;;;;;7.62;50.37;100544.56;4193056;28;21766;-67
2022/04/14 05:22:01;;;;;;;32.97;13.40;;;;;;;7.64;49.78;100547.09;4164838;28;20243;-66
2022/04/14 05:24:32;;;;;;;32.87;12.60;;;;;;;7.79;49.22;100540.53;4181089;28;20242;-66
2022/04/14 05:26:58;;;;;;;30.60;13.03;;;;;;;7.81;49.51;100543.91;4186972;28;20281;-63
2022/04/14 05:29:25;;;;;;;35.50;13.30;;;;;;;7.85;49.11;100541.88;4168314;28;22395;-63
2022/04/14 05:31:52;;;;;;;33.83;13.80;;;;;;;7.90;48.75;100537.03;4189830;28;20408;-63
2022/04/14 05:34:19;;;;;;;30.07;13.00;;;;;;;7.86;49.06;100541.72;4180782;28;22530;-63
2022/04/14 05:36:45;;;;;;;34.93;12.93;;;;;;;7.95;49.15;100543.63;4196650;28;20331;-64
2022/04/14 05:39:12;;;;;;;34.60;12.50;;;;;;;8.07;48.42;100548.88;4169814;28;21240;-67
2022/04/14 05:41:38;;;;;;;34.77;13.47;;;;;;;8.21;47.63;100543.28;4190846;28;20290;-64
2022/04/14 05:44:05;;;;;;;32.10;12.97;;;;;;;8.28;47.41;100549.75;4191743;28;21721;-65
2022/04/14 05:46:32;;;;;;;30.93;13.13;;;;;;;8.34;47.84;100546.63;4175774;28;20234;-64
2022/04/14 05:48:58;;;;;;;32.17;12.80;;;;;;;8.32;47.55;100559.16;4171263;28;20234;-66
2022/04/14 05:51:25;;;;;;;33.23;13.57;;;;;;;8.23;47.72;100551.97;4177783;28;21651;-65
2022/04/14 05:53:53;;;;;;;30.97;13.27;;;;;;;8.27;47.81;100550.75;4182576;28;20424;-64
2022/04/14 05:56:20;;;;;;;31.37;13.20;;;;;;;8.36;47.59;100557.09;4185245;28;21489;-63
2022/04/14 05:58:46;;;;;;;34.77;12.73;;;;;;;8.42;47.55;100543.34;4176878;28;20773;-66
2022/04/14 06:01:13;;;;;;;37.53;13.37;;;;;;;8.48;47.35;100557.91;4195158;28;20240;-63
2022/04/14 06:03:40;;;;;;;35.27;12.90;;;;;;;8.56;47.01;100550.16;4208519;28;20240;-65
2022/04/14 06:06:09;;;;;;;29.77;12.37;;;;;;;8.64;46.59;100545.03;4181284;28;20304;-65
2022/04/14 06:08:35;;;;;;;34.47;13.23;;;;;;;8.84;46.77;100546.00;4199646;28;20232;-66
2022/04/14 06:11:02;;;;;;;34.27;12.13;;;;;;;9.06;45.62;100537.88;4187651;28;20251;-64
2022/04/14 06:13:29;;;;;;;35.40;13.43;;;;;;;9.15;45.75;100538.88;4179677;28;21268;-64
2022/04/14 06:15:55;;;;;;;34.40;12.30;;;;;;;9.26;45.33;100541.44;4176085;28;21451;-64
2022/04/14 06:18:22;;;;;;;26.13;12.00;;;;;;;9.39;45.11;100543.88;4193045;28;20240;-65
2022/04/14 06:20:50;;;;;;;33.57;12.50;;;;;;;9.53;44.60;100547.97;4187388;28;20271;-65
2022/04/14 06:23:17;;;;;;;34.77;13.60;;;;;;;9.62;43.89;100544.50;4217707;28;20405;-66
2022/04/14 06:25:50;;;;;;;32.20;12.00;;;;;;;9.88;43.81;100536.84;4200793;28;21274;-64
2022/04/14 06:28:17;;;;;;;29.53;12.03;;;;;;;10.12;43.16;100539.09;4215332;28;20237;-66
2022/04/14 06:30:46;;;;;;;35.70;11.53;;;;;;;10.25;42.29;100540.63;4207836;28;25056;-65
2022/04/14 06:33:14;;;;;;;29.30;12.20;;;;;;;10.36;41.97;100543.19;4196653;28;20229;-66
2022/04/14 06:35:41;;;;;;;32.10;12.70;;;;;;;10.47;41.76;100542.22;4180884;28;20309;-65
2022/04/14 06:38:08;;;;;;;34.03;13.07;;;;;;;10.57;41.21;100543.88;4190401;28;20271;-65
2022/04/14 06:40:35;;;;;;;29.33;12.43;;;;;;;10.72;41.33;100546.09;4184498;28;20234;-66
2022/04/14 06:43:02;;;;;;;30.17;11.77;;;;;;;10.71;41.19;100531.09;4201763;28;20236;-67
2022/04/14 06:45:30;;;;;;;28.00;11.67;;;;;;;11.02;40.56;100530.88;4214202;28;20511;-64
2022/04/14 06:47:57;;;;;;;30.10;11.93;;;;;;;11.62;38.86;100532.13;4200129;28;23355;-65
2022/04/14 06:50:23;;;;;;;32.97;11.67;;;;;;;12.16;38.62;100539.38;4220444;28;21193;-69
2022/04/14 06:52:53;;;;;;;29.43;12.40;;;;;;;12.46;36.92;100535.47;4207094;28;21263;-68
2022/04/14 06:55:23;;;;;;;26.57;11.57;;;;;;;12.93;36.24;100534.31;4170771;28;21401;-70
2022/04/14 06:57:50;;;;;;;31.10;11.73;;;;;;;14.18;33.91;100541.59;4203150;28;21569;-69
2022/04/14 07:00:21;;;;;;;24.27;11.40;;;;;;;15.12;32.06;100537.50;4215431;28;21475;-68
2022/04/14 07:02:49;;;;;;;28.03;11.20;;;;;;;14.98;31.34;100548.94;4226558;28;20252;-68
2022/04/14 07:05:16;;;;;;;28.67;11.37;;;;;;;15.75;30.81;100545.69;4207911;28;20232;-68
2022/04/14 07:07:44;;;;;;;35.17;11.10;;;;;;;16.16;29.17;100538.22;4198693;28;20596;-69
2022/04/14 07:10:12;;;;;;;26.83;11.77;;;;;;;16.65;28.91;100545.03;4199286;28;20237;-68
2022/04/14 07:12:40;;;;;;;27.53;10.30;;;;;;;17.41;27.15;100550.31;4167068;28;25782;-70
2022/04/14 07:15:08;;;;;;;27.50;11.00;;;;;;;17.62;26.84;100553.06;4216788;28;20802;-70
2022/04/14 07:17:36;;;;;;;24.10;10.83;;;;;;;18.03;26.42;100549.00;4224942;28;20314;-70
2022/04/14 07:20:04;;;;;;;29.33;11.13;;;;;;;18.58;25.62;100546.63;4231359;28;20348;-68
2022/04/14 07:22:31;;;;;;;30.13;11.43;;;;;;;19.16;24.66;100545.41;4214569;28;20255;-70
2022/04/14 07:24:59;;;;;;;25.57;10.93;;;;;;;19.48;23.76;100543.09;4226119;28;21201;-70
2022/04/14 07:27:26;;;;;;;27.80;11.00;;;;;;;19.79;23.61;100548.00;4213083;28;20640;-68
2022/04/14 07:29:53;;;;;;;27.90;9.30;;;;;;;20.08;22.57;100564.91;4268383;28;21842;-71
2022/04/14 07:32:20;;;;;;;28.20;9.07;;;;;;;19.91;22.96;100552.81;4216603;28;26067;-71
2022/04/14 07:34:46;;;;;;;20.20;9.93;;;;;;;20.65;22.24;100566.28;4229565;28;26311;-70
2022/04/14 07:37:13;;;;;;;20.60;8.87;;;;;;;19.93;22.65;100548.06;4214461;28;20230;-70
2022/04/14 07:39:40;;;;;;;26.97;9.37;;;;;;;19.92;22.72;100549.06;4217441;28;20236;-71
2022/04/14 07:42:11;;;;;;;21.20;8.57;;;;;;;19.42;23.21;100548.44;4245119;28;20243;-66
2022/04/14 07:44:38;;;;;;;18.87;8.83;;;;;;;20.76;21.84;100555.84;4221060;28;20240;-69
2022/04/14 07:47:05;;;;;;;20.60;8.53;;;;;;;21.62;20.37;100562.97;4228951;28;20613;-68
2022/04/14 07:49:32;;;;;;;15.93;7.87;;;;;;;21.57;20.17;100563.63;4239787;28;20658;-67
2022/04/14 07:52:00;;;;;;;16.40;8.07;;;;;;;22.11;19.47;100565.00;4193875;28;21834;-67
2022/04/14 07:54:27;;;;;;;22.37;8.77;;;;;;;22.28;19.67;100559.94;4225371;28;21935;-68
2022/04/14 07:56:56;;;;;;;21.33;9.27;;;;;;;22.27;19.58;100561.00;4213779;28;20300;-70
2022/04/14 07:59:22;;;;;;;23.87;8.70;;;;;;;21.95;20.03;100554.69;4224288;28;22977;-68
2022/04/14 08:01:49;;;;;;;16.43;8.23;;;;;;;21.85;20.10;100566.00;4201726;28;20264;-66
2022/04/14 08:04:15;;;;;;;23.60;8.33;;;;;;;20.56;21.33;100554.00;4240594;28;20247;-67
2022/04/14 08:06:42;;;;;;;19.23;8.70;;;;;;;19.32;22.77;100554.22;4243889;28;20958;-67
2022/04/14 08:09:15;;;;;;;19.80;7.63;;;;;;;18.81;23.09;100547.25;4284028;28;20387;-69
2022/04/14 08:11:42;;;;;;;21.63;7.83;;;;;;;17.87;24.86;100542.00;4328939;28;22575;-68
2022/04/14 08:14:09;;;;;;;18.00;7.80;;;;;;;17.79;25.23;100536.69;4300642;28;20271;-69
2022/04/14 08:16:35;;;;;;;17.50;7.47;;;;;;;17.36;25.94;100526.66;4256813;28;21301;-68
2022/04/14 08:19:02;;;;;;;18.60;7.40;;;;;;;17.73;25.58;100520.28;4210832;28;21220;-70
2022/04/14 08:21:29;;;;;;;16.40;7.97;;;;;;;17.67;25.78;100518.34;4205344;28;20978;-69
2022/04/14 08:23:57;;;;;;;14.63;7.63;;;;;;;17.21;26.41;100520.47;4208150;28;20229;-64
2022/04/14 08:26:28;;;;;;;16.13;7.87;;;;;;;17.69;26.41;100518.97;4206552;28;20235;-67
2022/04/14 08:28:56;;;;;;;20.33;7.50;;;;;;;17.79;25.29;100520.53;4220316;28;20630;-69
2022/04/14 08:31:25;;;;;;;15.93;6.67;;;;;;;17.62;25.65;100514.56;4208119;28;21814;-64
2022/04/14 08:33:52;;;;;;;17.37;6.90;;;;;;;17.88;25.35;100514.03;4194653;28;20950;-69
2022/04/14 08:36:21;;;;;;;13.00;6.17;;;;;;;17.73;24.83;100506.81;4245405;28;20240;-65
2022/04/14 08:38:50;;;;;;;15.17;6.53;;;;;;;17.67;25.41;100512.94;4244320;28;20241;-66
2022/04/14 08:41:20;;;;;;;15.17;5.83;;;;;;;17.89;24.91;100515.72;4209375;28;22907;-66
2022/04/14 08:43:49;;;;;;;19.73;6.27;;;;;;;18.19;24.36;100510.19;4218125;28;22103;-66
2022/04/14 08:46:18;;;;;;;14.73;5.63;;;;;;;18.43;25.09;100512.50;4172937;28;26094;-68
2022/04/14 08:48:50;;;;;;;16.13;5.50;;;;;;;18.79;26.13;100522.34;4203766;28;20228;-70
2022/04/14 08:51:18;;;;;;;16.93;5.50;;;;;;;18.74;22.97;100530.16;4222906;28;20382;-68
2022/04/14 08:53:44;;;;;;;15.23;5.83;;;;;;;18.72;23.20;100526.81;4202673;28;20287;-67
2022/04/14 08:56:12;;;;;;;14.03;5.20;;;;;;;18.75;22.82;100521.03;4208086;28;20294;-67
2022/04/14 08:58:42;;;;;;;12.63;5.17;;;;;;;18.51;22.37;100519.59;4200952;28;20236;-69
2022/04/14 09:01:10;;;;;;;9.47;5.30;;;;;;;17.91;22.97;100519.91;4208160;28;21329;-68
2022/04/14 09:03:54;;;;;;;13.67;4.97;;;;;;;17.95;23.12;100520.34;4222755;28;21912;-68
2022/04/14 09:06:20;;;;;;;11.63;5.23;;;;;;;18.10;23.13;100513.03;4201865;28;20243;-67
2022/04/14 09:08:48;;;;;;;9.33;4.83;;;;;;;18.10;23.60;100507.66;4176524;28;20381;-69
2022/04/14 09:11:16;;;;;;;10.13;5.03;;;;;;;18.41;23.62;100508.34;4195297;28;21256;-64
2022/04/14 09:13:45;;;;;;;15.67;5.07;;;;;;;18.27;23.67;100508.22;4221235;28;20229;-57
2022/04/14 09:16:11;;;;;;;16.23;5.70;;;;;;;18.16;24.41;100500.66;4197336;28;20237;-66
2022/04/14 09:18:38;;;;;;;10.17;5.30;;;;;;;18.27;24.47;100492.06;4211275;28;21592;-64
2022/04/14 09:21:07;;;;;;;15.47;5.07;;;;;;;18.83;23.13;100496.66;4187462;28;21587;-64
2022/04/14 09:23:36;;;;;;;14.43;4.77;;;;;;;18.86;23.04;100498.13;4217190;28;22428;-57
2022/04/14 09:26:02;;;;;;;11.80;5.00;;;;;;;18.68;25.06;100493.19;4229699;28;20229;-65
2022/04/14 09:28:29;;;;;;;14.00;5.10;;;;;;;18.54;23.63;100493.13;4202303;28;20243;-65
2022/04/14 09:31:04;;;;;;;16.77;5.37;;;;;;;18.67;24.06;100492.38;4237436;28;23828;-65
2022/04/14 09:33:36;;;;;;;9.07;4.73;;;;;;;18.25;23.46;100477.94;4198704;28;20240;-67
2022/04/14 09:36:23;;;;;;;12.67;4.60;;;;;;;17.99;23.58;100478.53;4211601;28;20240;-67
2022/04/14 09:38:58;;;;;;;8.07;4.20;;;;;;;17.86;23.42;100470.31;4253357;28;20240;-63
2022/04/14 09:41:29;;;;;;;12.83;4.43;;;;;;;17.86;23.71;100467.63;4237006;28;21188;-66
2022/04/14 09:43:57;;;;;;;11.27;4.30;;;;;;;17.75;22.78;100468.09;4197718;28;20236;-64
2022/04/14 09:46:23;;;;;;;8.57;3.67;;;;;;;17.81;22.19;100462.81;4206289;28;20234;-67
2022/04/14 09:49:03;;;;;;;10.00;4.00;;;;;;;18.08;23.29;100461.22;4210660;28;20237;-67
2022/04/14 09:51:30;;;;;;;9.90;4.23;;;;;;;18.32;23.19;100456.44;4205085;28;20271;-66
2022/04/14 09:54:17;;;;;;;11.80;4.23;;;;;;;18.38;22.71;100455.69;4208125;28;20240;-65
2022/04/14 09:56:57;;;;;;;10.30;4.20;;;;;;;18.55;21.87;100446.25;4210456;28;20251;-65
2022/04/14 09:59:32;;;;;;;10.33;4.10;;;;;;;18.44;21.69;100452.19;4212991;28;21221;-67
2022/04/14 10:02:11;;;;;;;12.23;3.60;;;;;;;18.28;21.28;100439.00;4189006;28;20249;-67
2022/04/14 10:04:46;;;;;;;9.47;3.80;;;;;;;18.10;21.25;100439.50;4210724;28;20223;-65
2022/04/14 10:07:17;;;;;;;7.57;3.30;;;;;;;17.99;21.42;100445.41;4183014;28;20313;-67
2022/04/14 10:09:45;;;;;;;7.30;3.07;;;;;;;17.79;21.09;100442.47;4185748;28;20897;-64
2022/04/14 10:12:24;;;;;;;10.20;3.53;;;;;;;17.52;22.00;100424.19;4206299;28;25959;-66
2022/04/14 10:14:56;;;;;;;9.77;3.50;;;;;;;17.75;21.66;100433.97;4223033;28;26165;-70
2022/04/14 10:17:25;;;;;;;13.37;3.50;;;;;;;18.12;21.88;100430.19;4197213;28;20228;-65
2022/04/14 10:19:52;;;;;;;11.10;4.00;;;;;;;18.23;22.14;100425.28;4186278;28;20237;-65
2022/04/14 10:22:19;;;;;;;7.47;3.20;;;;;;;18.38;19.47;100431.44;4210550;28;22753;-63
2022/04/14 10:24:47;;;;;;;8.53;2.70;;;;;;;18.44;18.54;100448.66;4196059;28;22015;-66
2022/04/14 10:27:14;;;;;;;8.23;3.37;;;;;;;18.42;20.25;100424.59;4199579;28;20690;-65
2022/04/14 10:29:41;;;;;;;9.80;3.40;;;;;;;18.50;19.39;100431.72;4179918;28;20713;-65
2022/04/14 10:32:08;;;;;;;6.97;2.93;;;;;;;18.65;19.08;100426.22;4194405;28;20233;-66
2022/04/14 10:34:35;;;;;;;8.17;3.17;;;;;;;18.58;19.63;100419.94;4217529;28;20232;-64
2022/04/14 10:37:03;;;;;;;8.87;3.70;;;;;;;18.51;20.67;100412.63;4187511;28;20241;-64
2022/04/14 10:39:31;;;;;;;7.90;3.00;;;;;;;18.49;19.95;100414.69;4210370;28;20312;-68
2022/04/14 10:42:00;;;;;;;8.50;3.70;;;;;;;18.58;19.01;100418.06;4197046;28;20268;-64
2022/04/14 10:44:44;;;;;;;13.13;3.10;;;;;;;18.63;19.69;100409.41;4203994;28;20232;-65
2022/04/14 10:47:11;;;;;;;8.63;3.43;;;;;;;18.58;20.37;100414.56;4202882;28;20547;-66
2022/04/14 10:49:40;;;;;;;6.27;2.90;;;;;;;18.67;19.43;100410.66;4211311;28;20243;-65
2022/04/14 10:52:27;;;;;;;9.73;3.27;;;;;;;18.91;18.85;100402.09;4205328;28;21213;-65
2022/04/14 10:54:58;;;;;;;6.47;2.90;;;;;;;18.94;18.79;100401.72;4227733;28;21854;-68
2022/04/14 10:57:41;;;;;;;8.13;3.33;;;;;;;19.07;18.17;100400.94;4227967;28;22898;-66
2022/04/14 11:00:19;;;;;;;7.70;3.20;;;;;;;18.86;16.59;100399.19;4242061;28;25509;-65
2022/04/14 11:03:11;;;;;;;8.00;3.27;;;;;;;18.82;17.77;100395.22;4219697;28;22460;-64
2022/04/14 11:05:46;;;;;;;13.20;3.43;;;;;;;18.92;18.59;100387.59;4226228;28;20233;-69
2022/04/14 11:08:19;;;;;;;9.07;3.30;;;;;;;19.04;18.65;100381.63;4239582;28;20237;-71
2022/04/14 11:11:07;;;;;;;8.13;3.60;;;;;;;19.11;18.27;100390.59;4193348;28;20488;-64
2022/04/14 11:13:52;;;;;;;6.63;3.33;;;;;;;19.08;17.71;100382.88;4217609;28;20279;-70
2022/04/14 11:16:38;;;;;;;8.53;3.77;;;;;;;19.14;17.93;100382.09;4233218;28;22320;-66
2022/04/14 11:19:18;;;;;;;9.60;3.93;;;;;;;19.04;18.05;100379.75;4232643;28;20777;-65
2022/04/14 11:22:01;;;;;;;10.93;4.20;;;;;;;19.13;18.66;100369.63;4204070;28;20289;-66